createdAt,value
2022-08-22T00:00:42.462Z,0
2022-08-22T00:01:56.778Z,0
2022-08-22T00:03:11.108Z,0
2022-08-22T00:04:25.397Z,0
2022-08-22T00:05:39.804Z,0
2022-08-22T00:06:54.114Z,0
2022-08-22T00:08:08.427Z,0
2022-08-22T00:09:22.753Z,0
2022-08-22T00:10:37.036Z,0
2022-08-22T00:11:51.450Z,0
2022-08-22T00:13:05.758Z,0
2022-08-22T00:14:20.073Z,0
2022-08-22T00:15:34.399Z,0
2022-08-22T00:16:48.689Z,0
2022-08-22T00:18:03.092Z,0
2022-08-22T00:19:17.424Z,0
2022-08-22T00:20:31.726Z,0
2022-08-22T00:21:46.056Z,0
2022-08-22T00:23:00.330Z,0
2022-08-22T00:24:14.803Z,0
2022-08-22T00:25:29.152Z,0
2022-08-22T00:26:42.505Z,0
2022-08-22T00:27:56.794Z,0
2022-08-22T00:29:11.192Z,0
2022-08-22T00:30:25.524Z,0
2022-08-22T00:31:39.827Z,0
2022-08-22T00:32:54.161Z,0
2022-08-22T00:34:08.436Z,0
2022-08-22T00:35:22.842Z,0
2022-08-22T00:36:37.170Z,0
2022-08-22T00:37:51.492Z,0
2022-08-22T00:39:05.799Z,0
2022-08-22T00:40:20.082Z,0
2022-08-22T00:41:34.499Z,0
2022-08-22T00:42:48.815Z,0
2022-08-22T00:44:03.126Z,0
2022-08-22T00:45:17.453Z,0
2022-08-22T00:46:31.739Z,0
2022-08-22T00:47:46.160Z,0
2022-08-22T00:49:00.477Z,0
2022-08-22T00:50:14.000Z,0
2022-08-22T00:51:29.108Z,0
2022-08-22T00:52:43.381Z,0
2022-08-22T00:53:57.805Z,0
2022-08-22T00:55:12.124Z,0
2022-08-22T00:56:26.444Z,0
2022-08-22T00:57:40.826Z,0
2022-08-22T00:58:54.208Z,0
2022-08-22T01:00:08.539Z,0
2022-08-22T01:01:21.899Z,0
2022-08-22T01:02:36.181Z,0
2022-08-22T01:03:50.596Z,0
2022-08-22T01:05:04.909Z,0
2022-08-22T01:06:19.235Z,0
2022-08-22T01:07:33.559Z,0
2022-08-22T01:08:47.843Z,0
2022-08-22T01:10:02.257Z,0
2022-08-22T01:11:16.557Z,0
2022-08-22T01:12:30.881Z,0
2022-08-22T01:13:45.196Z,0
2022-08-22T01:14:59.479Z,0
2022-08-22T01:16:13.898Z,0
2022-08-22T01:17:28.226Z,0
2022-08-22T01:18:42.542Z,0
2022-08-22T01:19:56.847Z,0
2022-08-22T01:21:11.147Z,0
2022-08-22T01:22:25.548Z,0
2022-08-22T01:23:39.866Z,0
2022-08-22T01:24:54.190Z,0
2022-08-22T01:26:08.499Z,0
2022-08-22T01:27:22.788Z,0
2022-08-22T01:28:37.206Z,0
2022-08-22T01:29:51.517Z,0
2022-08-22T01:31:05.827Z,0
2022-08-22T01:32:20.210Z,0
2022-08-22T01:33:33.605Z,0
2022-08-22T01:34:47.947Z,0
2022-08-22T01:36:01.309Z,0
2022-08-22T01:37:15.598Z,0
2022-08-22T01:38:29.997Z,0
2022-08-22T01:39:44.331Z,0
2022-08-22T01:40:58.635Z,0
2022-08-22T01:42:12.965Z,0
2022-08-22T01:43:27.234Z,0
2022-08-22T01:44:41.649Z,0
2022-08-22T01:45:55.972Z,0
2022-08-22T01:47:10.281Z,0
2022-08-22T01:48:24.611Z,0
2022-08-22T01:49:38.901Z,0
2022-08-22T01:50:53.312Z,0
2022-08-22T01:52:07.630Z,0
2022-08-22T01:53:21.941Z,0
2022-08-22T01:54:36.254Z,0
2022-08-22T01:55:50.544Z,0
2022-08-22T01:57:04.962Z,0
2022-08-22T01:58:19.278Z,0
2022-08-22T01:59:33.588Z,0
2022-08-22T02:00:47.907Z,0
2022-08-22T02:02:02.196Z,0
2022-08-22T02:03:16.609Z,0
2022-08-22T02:04:30.925Z,0
2022-08-22T02:05:45.256Z,0
2022-08-22T02:06:59.634Z,0
2022-08-22T02:08:12.980Z,0
2022-08-22T02:09:27.292Z,0
2022-08-22T02:10:41.606Z,0
2022-08-22T02:11:55.929Z,0
2022-08-22T02:13:10.222Z,0
2022-08-22T02:14:24.631Z,0
2022-08-22T02:15:38.949Z,0
2022-08-22T02:16:53.271Z,0
2022-08-22T02:18:07.593Z,0
2022-08-22T02:19:21.865Z,0
2022-08-22T02:20:36.273Z,0
2022-08-22T02:21:50.593Z,0
2022-08-22T02:23:04.925Z,0
2022-08-22T02:24:19.225Z,0
2022-08-22T02:26:47.904Z,0
2022-08-22T02:28:02.219Z,0
2022-08-22T02:29:16.527Z,0
2022-08-22T02:30:30.865Z,0
2022-08-22T02:31:45.147Z,0
2022-08-22T02:32:59.541Z,0
2022-08-22T02:34:13.861Z,0
2022-08-22T02:35:28.180Z,0
2022-08-22T02:36:42.512Z,0
2022-08-22T02:37:56.788Z,0
2022-08-22T02:39:11.253Z,0
2022-08-22T02:40:25.600Z,0
2022-08-22T02:41:38.954Z,0
2022-08-22T02:42:53.240Z,0
2022-08-22T02:44:07.658Z,0
2022-08-22T02:45:21.973Z,0
2022-08-22T02:46:36.293Z,0
2022-08-22T02:47:50.599Z,0
2022-08-22T02:49:04.885Z,0
2022-08-22T02:50:19.293Z,0
2022-08-22T02:51:33.609Z,0
2022-08-22T02:52:47.930Z,0
2022-08-22T02:54:02.254Z,0
2022-08-22T02:55:16.539Z,0
2022-08-22T02:56:30.950Z,0
2022-08-22T02:57:45.268Z,0
2022-08-22T02:58:59.577Z,0
2022-08-22T03:00:13.899Z,0
2022-08-22T03:01:28.182Z,0
2022-08-22T03:02:42.594Z,0
2022-08-22T03:03:56.924Z,0
2022-08-22T03:05:11.240Z,0
2022-08-22T03:06:25.554Z,0
2022-08-22T03:07:39.849Z,0
2022-08-22T03:08:54.243Z,0
2022-08-22T03:10:08.576Z,0
2022-08-22T03:11:22.897Z,0
2022-08-22T03:12:37.257Z,0
2022-08-22T03:13:50.661Z,0
2022-08-22T03:15:05.001Z,0
2022-08-22T03:16:18.347Z,0
2022-08-22T03:17:32.646Z,0
2022-08-22T03:20:01.000Z,0
2022-08-22T03:21:15.678Z,0
2022-08-22T03:22:29.999Z,0
2022-08-22T03:23:44.293Z,0
2022-08-22T03:24:58.703Z,0
2022-08-22T03:26:12.941Z,1
2022-08-22T03:27:27.185Z,1
2022-08-22T03:28:41.405Z,1
2022-08-22T03:29:55.651Z,1
2022-08-22T03:31:09.935Z,2
2022-08-22T03:32:24.188Z,2
2022-08-22T03:33:38.428Z,2
2022-08-22T03:34:52.648Z,3
2022-08-22T03:36:06.875Z,3
2022-08-22T03:37:21.195Z,6
2022-08-22T03:38:35.436Z,8
2022-08-22T03:39:49.655Z,9
2022-08-22T03:41:03.895Z,11
2022-08-22T03:42:18.111Z,13
2022-08-22T03:43:32.419Z,15
2022-08-22T03:44:46.667Z,16
2022-08-22T03:46:00.904Z,23
2022-08-22T03:47:15.184Z,28
2022-08-22T03:48:28.528Z,29
2022-08-22T03:49:42.819Z,37
2022-08-22T03:50:56.124Z,46
2022-08-22T03:52:10.349Z,51
2022-08-22T03:53:24.638Z,53
2022-08-22T03:54:38.896Z,71
2022-08-22T03:55:53.123Z,80
2022-08-22T03:57:07.353Z,91
2022-08-22T03:58:21.591Z,100
2022-08-22T03:59:35.885Z,113
2022-08-22T04:00:50.130Z,128
2022-08-22T04:02:04.374Z,141
2022-08-22T04:03:18.587Z,156
2022-08-22T04:04:32.820Z,168
2022-08-22T04:05:47.124Z,184
2022-08-22T04:07:01.370Z,202
2022-08-22T04:08:15.596Z,218
2022-08-22T04:09:29.831Z,237
2022-08-22T04:10:44.061Z,253
2022-08-22T04:11:58.372Z,275
2022-08-22T04:13:12.605Z,297
2022-08-22T04:14:26.843Z,321
2022-08-22T04:15:41.073Z,347
2022-08-22T04:16:55.313Z,368
2022-08-22T04:18:09.620Z,398
2022-08-22T04:19:23.847Z,431
2022-08-22T04:20:38.083Z,462
2022-08-22T04:21:52.381Z,496
2022-08-22T04:23:05.672Z,523
2022-08-22T04:24:19.912Z,560
2022-08-22T04:25:34.160Z,593
2022-08-22T04:26:48.385Z,629
2022-08-22T04:28:02.615Z,659
2022-08-22T04:29:16.908Z,701
2022-08-22T04:30:31.164Z,741
2022-08-22T04:31:45.400Z,783
2022-08-22T04:32:59.616Z,823
2022-08-22T04:34:13.864Z,843
2022-08-22T04:35:28.155Z,885
2022-08-22T04:36:42.400Z,927
2022-08-22T04:37:56.640Z,974
2022-08-22T04:39:10.873Z,1019
2022-08-22T04:40:25.105Z,1039
2022-08-22T04:41:39.401Z,1081
2022-08-22T04:42:53.652Z,1133
2022-08-22T04:44:07.865Z,1176
2022-08-22T04:45:22.100Z,1230
2022-08-22T04:46:36.330Z,1255
2022-08-22T04:47:50.640Z,1305
2022-08-22T04:49:04.890Z,1367
2022-08-22T04:50:19.109Z,1424
2022-08-22T04:51:33.346Z,1484
2022-08-22T04:52:47.576Z,1511
2022-08-22T04:54:01.941Z,1573
2022-08-22T04:55:16.218Z,1646
2022-08-22T04:56:29.554Z,1719
2022-08-22T04:57:42.861Z,1757
2022-08-22T04:58:57.115Z,1845
2022-08-22T05:00:11.345Z,1913
2022-08-22T05:01:25.576Z,1993
2022-08-22T05:02:39.798Z,2029
2022-08-22T05:03:54.106Z,2109
2022-08-22T05:05:08.340Z,2159
2022-08-22T05:06:22.588Z,2215
2022-08-22T05:07:36.805Z,2279
2022-08-22T05:08:51.037Z,2314
2022-08-22T05:10:05.346Z,2363
2022-08-22T05:11:19.601Z,2448
2022-08-22T05:12:33.818Z,2529
2022-08-22T05:13:48.055Z,2587
2022-08-22T05:15:02.272Z,2593
2022-08-22T05:16:16.597Z,2643
2022-08-22T05:17:30.831Z,2661
2022-08-22T05:18:45.072Z,2691
2022-08-22T05:19:59.296Z,2726
2022-08-22T05:21:13.522Z,2746
2022-08-22T05:22:27.837Z,2779
2022-08-22T05:23:42.067Z,2851
2022-08-22T05:24:56.308Z,2909
2022-08-22T05:26:10.539Z,2980
2022-08-22T05:27:24.762Z,3023
2022-08-22T05:28:39.136Z,3090
2022-08-22T05:29:53.410Z,3144
2022-08-22T05:31:06.717Z,3186
2022-08-22T05:32:20.955Z,3148
2022-08-22T05:33:35.246Z,3221
2022-08-22T05:34:49.487Z,3314
2022-08-22T05:36:03.725Z,3372
2022-08-22T05:37:17.948Z,3405
2022-08-22T05:38:32.188Z,3405
2022-08-22T05:41:00.737Z,3561
2022-08-22T05:42:14.957Z,3626
2022-08-22T05:43:29.197Z,3708
2022-08-22T05:44:43.432Z,3717
2022-08-22T05:45:57.736Z,3811
2022-08-22T05:47:11.969Z,3924
2022-08-22T05:48:26.199Z,4036
2022-08-22T05:49:40.444Z,4095
2022-08-22T05:50:54.657Z,4131
2022-08-22T05:52:08.968Z,4134
2022-08-22T05:53:23.212Z,4183
2022-08-22T05:54:37.456Z,4326
2022-08-22T05:55:51.672Z,4461
2022-08-22T05:57:05.916Z,4600
2022-08-22T05:58:20.211Z,4607
2022-08-22T05:59:34.449Z,4676
2022-08-22T06:00:48.687Z,4698
2022-08-22T06:02:02.974Z,4758
2022-08-22T06:03:16.325Z,4783
2022-08-22T06:04:30.619Z,4836
2022-08-22T06:05:43.910Z,4892
2022-08-22T06:06:58.137Z,4929
2022-08-22T06:08:12.446Z,4937
2022-08-22T06:09:26.691Z,4987
2022-08-22T06:10:40.916Z,5079
2022-08-22T06:11:55.139Z,5147
2022-08-22T06:13:09.387Z,5198
2022-08-22T06:14:23.693Z,5123
2022-08-22T06:15:37.932Z,5316
2022-08-22T06:16:52.148Z,5385
2022-08-22T06:18:06.386Z,5378
2022-08-22T06:19:20.627Z,3271
2022-08-22T06:20:34.919Z,5989
2022-08-22T06:21:49.165Z,5453
2022-08-22T06:23:03.401Z,6256
2022-08-22T06:24:17.632Z,6129
2022-08-22T06:25:31.849Z,6366
2022-08-22T06:26:46.171Z,6510
2022-08-22T06:28:00.416Z,6201
2022-08-22T06:29:14.629Z,6446
2022-08-22T06:30:28.866Z,6447
2022-08-22T06:31:43.092Z,6510
2022-08-22T06:32:57.397Z,6385
2022-08-22T06:34:11.644Z,6472
2022-08-22T06:35:25.887Z,6545
2022-08-22T06:36:40.174Z,6494
2022-08-22T06:37:53.513Z,6498
2022-08-22T06:39:07.789Z,6441
2022-08-22T06:40:21.098Z,6362
2022-08-22T06:41:35.325Z,6348
2022-08-22T06:42:49.624Z,6436
2022-08-22T06:44:03.873Z,6343
2022-08-22T06:45:18.099Z,6438
2022-08-22T06:46:32.331Z,6443
2022-08-22T06:47:46.560Z,6380
2022-08-22T06:49:00.867Z,6401
2022-08-22T06:50:15.108Z,6519
2022-08-22T06:51:29.337Z,6394
2022-08-22T06:52:43.572Z,6558
2022-08-22T06:53:57.792Z,6300
2022-08-22T06:55:12.096Z,6627
2022-08-22T06:56:26.347Z,6684
2022-08-22T06:57:40.572Z,6763
2022-08-22T06:58:54.801Z,6795
2022-08-22T07:00:09.036Z,6917
2022-08-22T07:01:23.342Z,6654
2022-08-22T07:02:37.594Z,6922
2022-08-22T07:03:51.813Z,6973
2022-08-22T07:05:06.043Z,6928
2022-08-22T07:06:20.276Z,6926
2022-08-22T07:07:34.586Z,6941
2022-08-22T07:08:48.826Z,6964
2022-08-22T07:10:03.053Z,6906
2022-08-22T07:11:17.342Z,6785
2022-08-22T07:12:30.645Z,6785
2022-08-22T07:13:44.893Z,6677
2022-08-22T07:14:59.112Z,6731
2022-08-22T07:16:13.357Z,6829
2022-08-22T07:31:04.361Z,6537
2022-08-22T07:32:18.605Z,6538
2022-08-22T07:33:32.836Z,6493
2022-08-22T07:34:47.049Z,6448
2022-08-22T07:36:01.287Z,6393
2022-08-22T07:37:15.602Z,6354
2022-08-22T07:38:29.841Z,6351
2022-08-22T07:39:44.060Z,6378
2022-08-22T07:40:58.289Z,6431
2022-08-22T07:42:12.535Z,6422
2022-08-22T07:43:26.901Z,6500
2022-08-22T07:44:41.172Z,6575
2022-08-22T07:45:54.473Z,6560
2022-08-22T07:47:08.711Z,6519
2022-08-22T07:48:23.019Z,6625
2022-08-22T07:49:37.261Z,6642
2022-08-22T07:50:51.488Z,6676
2022-08-22T07:52:05.722Z,6642
2022-08-22T07:53:19.945Z,6640
2022-08-22T07:54:34.245Z,6666
2022-08-22T07:55:48.491Z,6668
2022-08-22T07:57:02.732Z,6641
2022-08-22T07:58:16.959Z,6695
2022-08-22T07:59:31.200Z,6718
2022-08-22T08:00:45.504Z,6721
2022-08-22T08:01:59.730Z,6758
2022-08-22T08:03:13.977Z,6774
2022-08-22T08:04:28.198Z,6787
2022-08-22T08:05:42.436Z,6807
2022-08-22T08:06:56.740Z,6788
2022-08-22T08:08:10.000Z,6802
2022-08-22T08:09:25.208Z,6837
2022-08-22T08:10:39.441Z,6835
2022-08-22T08:11:53.661Z,6837
2022-08-22T08:13:07.974Z,6949
2022-08-22T08:14:22.229Z,6930
2022-08-22T08:15:36.443Z,6998
2022-08-22T08:16:50.742Z,7069
2022-08-22T08:18:04.063Z,7096
2022-08-22T08:19:18.355Z,7263
2022-08-22T08:20:31.654Z,7345
2022-08-22T08:21:45.882Z,7424
2022-08-22T08:23:00.198Z,7478
2022-08-22T08:24:14.432Z,7593
2022-08-22T08:25:28.662Z,7715
2022-08-22T08:26:42.894Z,7797
2022-08-22T08:27:57.137Z,7816
2022-08-22T08:29:11.424Z,7905
2022-08-22T08:30:25.685Z,7947
2022-08-22T08:31:39.906Z,7980
2022-08-22T08:32:54.147Z,8010
2022-08-22T08:34:08.364Z,8020
2022-08-22T08:35:22.682Z,8002
2022-08-22T08:36:36.909Z,8045
2022-08-22T08:37:51.149Z,7951
2022-08-22T08:39:05.369Z,8057
2022-08-22T08:40:19.616Z,8040
2022-08-22T08:41:33.922Z,8011
2022-08-22T08:42:48.163Z,8204
2022-08-22T08:44:02.383Z,8174
2022-08-22T08:45:16.610Z,8120
2022-08-22T08:46:30.839Z,8099
2022-08-22T08:47:45.161Z,7991
2022-08-22T08:48:59.392Z,8137
2022-08-22T08:50:13.637Z,8057
2022-08-22T08:51:27.000Z,8108
2022-08-22T08:52:41.257Z,7905
2022-08-22T08:53:55.540Z,8145
2022-08-22T08:55:08.850Z,8170
2022-08-22T08:56:23.075Z,8235
2022-08-22T08:57:37.369Z,8075
2022-08-22T08:58:51.611Z,7868
2022-08-22T09:00:05.859Z,7976
2022-08-22T09:01:20.095Z,8109
2022-08-22T09:02:34.322Z,8012
2022-08-22T09:03:48.635Z,8139
2022-08-22T09:05:02.873Z,8239
2022-08-22T09:06:17.099Z,8156
2022-08-22T09:07:31.342Z,8019
2022-08-22T09:08:45.566Z,8155
2022-08-22T09:09:59.859Z,7905
2022-08-22T09:11:14.113Z,7864
2022-08-22T09:12:28.337Z,7860
2022-08-22T09:13:42.566Z,7822
2022-08-22T09:14:56.813Z,7657
2022-08-22T09:16:11.121Z,7746
2022-08-22T09:17:25.362Z,7945
2022-08-22T09:18:39.575Z,8008
2022-08-22T09:19:53.823Z,8105
2022-08-22T09:21:08.054Z,8238
2022-08-22T09:22:22.343Z,8213
2022-08-22T09:23:36.597Z,8302
2022-08-22T09:24:50.821Z,8306
2022-08-22T09:26:05.124Z,8430
2022-08-22T09:27:18.427Z,8525
2022-08-22T09:28:32.653Z,8747
2022-08-22T09:29:46.898Z,9131
2022-08-22T09:31:01.120Z,9253
2022-08-22T09:32:15.356Z,9341
2022-08-22T09:33:29.648Z,9350
2022-08-22T09:34:43.895Z,9168
2022-08-22T09:35:58.132Z,9213
2022-08-22T09:37:12.370Z,9128
2022-08-22T09:38:26.585Z,9309
2022-08-22T09:39:40.900Z,9109
2022-08-22T09:40:55.138Z,8723
2022-08-22T09:42:09.379Z,9032
2022-08-22T09:43:23.610Z,8663
2022-08-22T09:44:37.839Z,8222
2022-08-22T09:45:52.140Z,10284
2022-08-22T09:47:06.385Z,8720
2022-08-22T09:48:20.620Z,8539
2022-08-22T09:49:34.839Z,8306
2022-08-22T09:50:49.080Z,7812
2022-08-22T09:52:03.371Z,8835
2022-08-22T09:53:17.631Z,8220
2022-08-22T09:54:31.860Z,8842
2022-08-22T09:55:46.090Z,8718
2022-08-22T09:57:00.320Z,8656
2022-08-22T09:58:14.677Z,8932
2022-08-22T09:59:28.961Z,8481
2022-08-22T10:00:42.293Z,8870
2022-08-22T10:01:55.611Z,8741
2022-08-22T10:03:09.850Z,8980
2022-08-22T10:04:24.075Z,8943
2022-08-22T10:05:38.300Z,8935
2022-08-22T10:06:52.531Z,9121
2022-08-22T10:08:06.832Z,9170
2022-08-22T10:09:21.089Z,9258
2022-08-22T10:10:35.324Z,9155
2022-08-22T10:11:49.548Z,8414
2022-08-22T10:13:03.778Z,9726
2022-08-22T10:14:18.088Z,9071
2022-08-22T10:15:32.320Z,8296
2022-08-22T10:16:46.564Z,8862
2022-08-22T10:18:00.784Z,8564
2022-08-22T10:19:15.014Z,9604
2022-08-22T10:20:29.323Z,9611
2022-08-22T10:21:43.578Z,10027
2022-08-22T10:22:57.805Z,10375
2022-08-22T10:24:12.027Z,9339
2022-08-22T10:25:26.260Z,9357
2022-08-22T10:26:40.558Z,9178
2022-08-22T10:27:54.814Z,9305
2022-08-22T10:29:09.031Z,9624
2022-08-22T10:30:23.264Z,9228
2022-08-22T10:31:37.502Z,9147
2022-08-22T10:32:51.856Z,9488
2022-08-22T10:34:06.141Z,9271
2022-08-22T10:35:19.447Z,9260
2022-08-22T10:36:32.692Z,9800
2022-08-22T10:37:46.955Z,9095
2022-08-22T10:39:01.178Z,10278
2022-08-22T10:40:15.411Z,9582
2022-08-22T10:41:29.629Z,8812
2022-08-22T10:42:43.939Z,9539
2022-08-22T10:43:58.189Z,9766
2022-08-22T10:45:12.424Z,10239
2022-08-22T10:46:26.644Z,9794
2022-08-22T10:47:40.874Z,10687
2022-08-22T10:48:55.181Z,10356
2022-08-22T10:50:09.428Z,9515
2022-08-22T10:51:23.654Z,10049
2022-08-22T10:52:37.884Z,10261
2022-08-22T10:53:52.119Z,10628
2022-08-22T10:55:06.412Z,10650
2022-08-22T10:56:20.656Z,10762
2022-08-22T10:57:34.902Z,11763
2022-08-22T10:58:49.127Z,11146
2022-08-22T11:00:03.351Z,10845
2022-08-22T11:01:17.666Z,11435
2022-08-22T11:02:31.893Z,12330
2022-08-22T11:03:46.135Z,12056
2022-08-22T11:05:00.374Z,11866
2022-08-22T11:06:14.605Z,12224
2022-08-22T11:07:28.896Z,12157
2022-08-22T11:08:43.156Z,13114
2022-08-22T11:09:57.371Z,12227
2022-08-22T11:11:11.600Z,11903
2022-08-22T11:12:25.845Z,11731
2022-08-22T11:13:40.137Z,12229
2022-08-22T11:14:54.379Z,11237
2022-08-22T11:16:08.624Z,13032
2022-08-22T11:17:22.850Z,11675
2022-08-22T11:18:37.084Z,11454
2022-08-22T11:19:51.388Z,11563
2022-08-22T11:21:05.620Z,12848
2022-08-22T11:22:19.909Z,11608
2022-08-22T11:23:33.254Z,10900
2022-08-22T11:24:47.554Z,12633
2022-08-22T11:26:01.852Z,12270
2022-08-22T11:27:15.137Z,11867
2022-08-22T11:28:29.000Z,10766
2022-08-22T11:29:43.667Z,12344
2022-08-22T11:30:57.922Z,11794
2022-08-22T11:32:12.143Z,11248
2022-08-22T11:33:26.391Z,10791
2022-08-22T11:34:40.620Z,11043
2022-08-22T11:35:54.919Z,10545
2022-08-22T11:37:09.170Z,10148
2022-08-22T11:38:23.391Z,11538
2022-08-22T11:39:37.627Z,10307
2022-08-22T11:40:51.846Z,10878
2022-08-22T11:42:06.163Z,10905
2022-08-22T11:43:20.414Z,10730
2022-08-22T11:44:34.630Z,10601
2022-08-22T11:45:48.875Z,10787
2022-08-22T11:47:03.105Z,11005
2022-08-22T11:48:17.401Z,10317
2022-08-22T11:49:31.647Z,10794
2022-08-22T11:50:45.873Z,10560
2022-08-22T11:52:00.097Z,10881
2022-08-22T11:53:14.337Z,9070
2022-08-22T11:54:28.649Z,12505
2022-08-22T11:55:42.884Z,10860
2022-08-22T11:56:57.116Z,11689
2022-08-22T11:58:11.403Z,11622
2022-08-22T11:59:24.696Z,11953
2022-08-22T12:00:38.953Z,11977
2022-08-22T12:01:53.179Z,12061
2022-08-22T12:03:07.408Z,12453
2022-08-22T12:04:21.648Z,11854
2022-08-22T12:05:35.950Z,12530
2022-08-22T12:06:50.196Z,12040
2022-08-22T12:08:04.425Z,12616
2022-08-22T12:09:18.643Z,12703
2022-08-22T12:10:32.877Z,12275
2022-08-22T12:11:47.192Z,13502
2022-08-22T12:13:01.431Z,11310
2022-08-22T12:15:29.894Z,11285
2022-08-22T12:16:44.124Z,10802
2022-08-22T12:17:58.429Z,8511
2022-08-22T12:19:12.679Z,10811
2022-08-22T12:20:26.906Z,10104
2022-08-22T12:30:20.973Z,12045
2022-08-22T12:32:49.553Z,11772
2022-08-22T12:34:02.845Z,12137
2022-08-22T12:35:17.144Z,11354
2022-08-22T12:36:31.387Z,11308
2022-08-22T12:37:45.633Z,11484
2022-08-22T12:38:59.865Z,11560
2022-08-22T12:40:14.090Z,11505
2022-08-22T12:41:28.394Z,12365
2022-08-22T12:42:42.633Z,10493
2022-08-22T12:43:56.856Z,12744
2022-08-22T12:45:11.097Z,12817
2022-08-22T12:46:25.319Z,13782
2022-08-22T12:47:39.639Z,10729
2022-08-22T12:48:53.872Z,12514
2022-08-22T12:50:08.108Z,12888
2022-08-22T12:51:22.344Z,11148
2022-08-22T12:52:36.570Z,14237
2022-08-22T12:53:50.882Z,12754
2022-08-22T12:55:05.114Z,11790
2022-08-22T12:56:19.349Z,13060
2022-08-22T12:57:33.585Z,12560
2022-08-22T12:58:47.810Z,13940
2022-08-22T13:00:02.103Z,13097
2022-08-22T13:01:16.356Z,12319
2022-08-22T13:02:30.598Z,11442
2022-08-22T13:03:44.821Z,11319
2022-08-22T13:04:59.106Z,10922
2022-08-22T13:06:13.421Z,10602
2022-08-22T13:07:27.706Z,10362
2022-08-22T13:08:41.007Z,10153
2022-08-22T13:09:55.229Z,10099
2022-08-22T13:11:09.539Z,9373
2022-08-22T13:12:23.779Z,11657
2022-08-22T13:13:38.003Z,11098
2022-08-22T13:14:52.237Z,11097
2022-08-22T13:16:06.474Z,10420
2022-08-22T13:17:20.781Z,10783
2022-08-22T13:18:35.031Z,10307
2022-08-22T13:19:49.241Z,10576
2022-08-22T13:21:03.476Z,10172
2022-08-22T13:22:17.709Z,10739
2022-08-22T13:23:32.025Z,9968
2022-08-22T13:24:46.262Z,9668
2022-08-22T13:26:00.482Z,9380
2022-08-22T13:27:14.726Z,9283
2022-08-22T13:28:28.952Z,9132
2022-08-22T13:29:43.255Z,9541
2022-08-22T13:30:57.495Z,9263
2022-08-22T13:32:11.729Z,9484
2022-08-22T13:33:25.962Z,9765
2022-08-22T13:34:40.186Z,9836
2022-08-22T13:35:54.490Z,10096
2022-08-22T13:37:08.750Z,10402
2022-08-22T13:38:22.984Z,10772
2022-08-22T13:39:37.259Z,11025
2022-08-22T13:40:50.557Z,12087
2022-08-22T13:42:04.815Z,11406
2022-08-22T13:43:19.028Z,12098
2022-08-22T13:44:33.273Z,12643
2022-08-22T13:45:47.506Z,12666
2022-08-22T13:47:01.808Z,13468
2022-08-22T13:48:16.045Z,12711
2022-08-22T13:49:30.275Z,13450
2022-08-22T13:50:44.506Z,13043
2022-08-22T13:51:58.732Z,12940
2022-08-22T13:53:13.051Z,12646
2022-08-22T13:54:27.300Z,12643
2022-08-22T13:55:41.530Z,12050
2022-08-22T13:56:55.745Z,11394
2022-08-22T13:58:09.990Z,10796
2022-08-22T13:59:24.287Z,10883
2022-08-22T14:00:38.532Z,12216
2022-08-22T14:01:52.766Z,11666
2022-08-22T14:03:06.982Z,11365
2022-08-22T14:04:21.219Z,11725
2022-08-22T14:05:35.537Z,11577
2022-08-22T14:06:49.779Z,11933
2022-08-22T14:08:04.009Z,11730
2022-08-22T14:09:18.242Z,12588
2022-08-22T14:10:32.460Z,11794
2022-08-22T14:11:46.820Z,13197
2022-08-22T14:13:01.107Z,10768
2022-08-22T14:15:28.643Z,12522
2022-08-22T14:16:42.954Z,12960
2022-08-22T14:17:57.202Z,12885
2022-08-22T14:19:11.425Z,13111
2022-08-22T14:20:25.660Z,13301
2022-08-22T14:21:39.883Z,13439
2022-08-22T14:22:54.183Z,13458
2022-08-22T14:24:08.431Z,13952
2022-08-22T14:25:22.666Z,13419
2022-08-22T14:26:36.899Z,13557
2022-08-22T14:27:51.133Z,13406
2022-08-22T14:29:05.434Z,13447
2022-08-22T14:30:19.668Z,12942
2022-08-22T14:31:33.909Z,12604
2022-08-22T14:32:48.147Z,12155
2022-08-22T14:34:02.370Z,11962
2022-08-22T14:35:16.664Z,11169
2022-08-22T14:36:30.918Z,10758
2022-08-22T14:37:45.149Z,10353
2022-08-22T14:38:59.371Z,10132
2022-08-22T14:40:13.594Z,10020
2022-08-22T14:41:27.893Z,9794
2022-08-22T14:42:42.143Z,9499
2022-08-22T14:43:56.384Z,9205
2022-08-22T14:45:10.667Z,9083
2022-08-22T14:46:24.023Z,9043
2022-08-22T14:47:38.293Z,8895
2022-08-22T14:48:51.590Z,8852
2022-08-22T14:50:05.831Z,8855
2022-08-22T14:51:20.142Z,8957
2022-08-22T14:52:34.380Z,9176
2022-08-22T14:53:48.618Z,9308
2022-08-22T14:55:02.837Z,9497
2022-08-22T14:56:17.081Z,9598
2022-08-22T14:57:31.382Z,9804
2022-08-22T14:58:45.612Z,9905
2022-08-22T14:59:59.847Z,10142
2022-08-22T15:01:14.078Z,10390
2022-08-22T15:02:28.308Z,9939
2022-08-22T15:03:42.616Z,11098
2022-08-22T15:04:56.853Z,10713
2022-08-22T15:06:11.087Z,11031
2022-08-22T15:07:25.317Z,11385
2022-08-22T15:08:39.558Z,11545
2022-08-22T15:09:53.859Z,11750
2022-08-22T15:11:08.097Z,11126
2022-08-22T15:12:22.338Z,11629
2022-08-22T15:13:36.563Z,11342
2022-08-22T15:14:50.801Z,11125
2022-08-22T15:16:05.092Z,10395
2022-08-22T15:17:19.336Z,10145
2022-08-22T15:18:33.564Z,9896
2022-08-22T15:19:47.857Z,9621
2022-08-22T15:21:01.194Z,9446
2022-08-22T15:22:15.477Z,9143
2022-08-22T15:23:28.781Z,8881
2022-08-22T15:24:43.013Z,8780
2022-08-22T15:25:57.328Z,8620
2022-08-22T15:27:11.572Z,8480
2022-08-22T15:28:25.795Z,8371
2022-08-22T15:29:40.019Z,8295
2022-08-22T15:30:54.245Z,8231
2022-08-22T15:32:08.565Z,8190
2022-08-22T15:33:22.806Z,8111
2022-08-22T15:34:37.037Z,8086
2022-08-22T15:35:51.262Z,8173
2022-08-22T15:37:05.493Z,8225
2022-08-22T15:38:19.794Z,8423
2022-08-22T15:39:34.049Z,8953
2022-08-22T15:40:48.266Z,8444
2022-08-22T15:42:02.502Z,8416
2022-08-22T15:43:16.725Z,8397
2022-08-22T15:44:31.033Z,8299
2022-08-22T15:45:45.292Z,8211
2022-08-22T15:46:59.521Z,8104
2022-08-22T15:48:13.753Z,7967
2022-08-22T15:49:27.982Z,7940
2022-08-22T15:50:42.274Z,7874
2022-08-22T15:51:56.531Z,7765
2022-08-22T15:53:10.752Z,7652
2022-08-22T15:54:25.039Z,7498
2022-08-22T15:55:38.354Z,7412
2022-08-22T15:56:52.595Z,7217
2022-08-22T15:58:06.817Z,7011
2022-08-22T15:59:21.046Z,6975
2022-08-22T16:00:35.277Z,6998
2022-08-22T16:01:49.580Z,6863
2022-08-22T16:03:03.821Z,6651
2022-08-22T16:04:18.055Z,6611
2022-08-22T16:05:32.289Z,6492
2022-08-22T16:06:46.519Z,6461
2022-08-22T16:08:00.834Z,6402
2022-08-22T16:09:15.079Z,6329
2022-08-22T16:10:29.310Z,6356
2022-08-22T16:11:43.521Z,6165
2022-08-22T16:12:57.770Z,6067
2022-08-22T16:14:12.070Z,6006
2022-08-22T16:15:26.319Z,5916
2022-08-22T16:16:40.535Z,5819
2022-08-22T16:17:54.778Z,5779
2022-08-22T16:19:08.998Z,5761
2022-08-22T16:20:23.298Z,5756
2022-08-22T16:21:37.554Z,5760
2022-08-22T16:22:51.777Z,5741
2022-08-22T16:24:06.015Z,5761
2022-08-22T16:25:20.246Z,5763
2022-08-22T16:26:34.614Z,5901
2022-08-22T16:27:48.902Z,5880
2022-08-22T16:29:02.188Z,5888
2022-08-22T16:30:16.422Z,5894
2022-08-22T16:31:30.716Z,5910
2022-08-22T16:32:44.970Z,5936
2022-08-22T16:33:59.208Z,5974
2022-08-22T16:35:13.439Z,6010
2022-08-22T16:36:27.671Z,6019
2022-08-22T16:37:41.955Z,6193
2022-08-22T16:38:56.200Z,7105
2022-08-22T16:40:10.449Z,7871
2022-08-22T16:41:24.660Z,7534
2022-08-22T16:42:38.891Z,7669
2022-08-22T16:43:53.207Z,7230
2022-08-22T16:45:07.443Z,6665
2022-08-22T16:46:21.681Z,6302
2022-08-22T16:47:35.901Z,6152
2022-08-22T16:48:50.149Z,6044
2022-08-22T16:50:04.443Z,5826
2022-08-22T16:51:18.690Z,7411
2022-08-22T16:52:32.914Z,9060
2022-08-22T16:53:47.148Z,9682
2022-08-22T16:55:01.376Z,8877
2022-08-22T16:56:15.679Z,10123
2022-08-22T16:57:29.000Z,9026
2022-08-22T16:58:44.158Z,8193
2022-08-22T16:59:58.453Z,8644
2022-08-22T17:01:11.806Z,8005
2022-08-22T17:02:26.081Z,10058
2022-08-22T17:03:39.394Z,8140
2022-08-22T17:04:53.610Z,7665
2022-08-22T17:06:07.928Z,7184
2022-08-22T17:07:22.163Z,7224
2022-08-22T17:08:36.392Z,6006
2022-08-22T17:09:50.639Z,5431
2022-08-22T17:11:04.851Z,5302
2022-08-22T17:12:19.160Z,5030
2022-08-22T17:13:33.400Z,4866